createdAt,value
2018-07-22T00:00:52.008Z,19.89
2018-07-22T00:01:52.011Z,19.92
2018-07-22T00:02:52.015Z,19.95
2018-07-22T00:03:52.019Z,19.94
2018-07-22T00:04:52.022Z,19.89
2018-07-22T00:05:52.025Z,19.91
2018-07-22T00:06:52.027Z,19.79
2018-07-22T00:07:52.033Z,19.79
2018-07-22T00:08:52.035Z,19.74
2018-07-22T00:09:52.040Z,19.74
2018-07-22T00:10:52.041Z,19.73
2018-07-22T00:11:52.045Z,19.73
2018-07-22T00:12:52.049Z,19.74
2018-07-22T00:13:52.052Z,19.74
2018-07-22T00:14:52.056Z,19.73
2018-07-22T00:15:52.059Z,19.76
2018-07-22T00:16:52.062Z,19.73
2018-07-22T00:17:52.066Z,19.69
2018-07-22T00:18:52.069Z,19.66
2018-07-22T00:19:52.072Z,19.67
2018-07-22T00:20:52.077Z,19.69
2018-07-22T00:21:52.080Z,19.70
2018-07-22T00:22:52.083Z,19.66
2018-07-22T00:23:52.085Z,19.64
2018-07-22T00:24:52.092Z,19.56
2018-07-22T00:25:52.092Z,19.67
2018-07-22T00:26:52.096Z,19.59
2018-07-22T00:27:52.102Z,19.56
2018-07-22T00:28:52.101Z,19.58
2018-07-22T00:29:52.106Z,19.56
2018-07-22T00:30:52.108Z,19.52
2018-07-22T00:31:52.111Z,19.54
2018-07-22T00:32:52.117Z,19.51
2018-07-22T00:33:52.119Z,19.55
2018-07-22T00:34:52.120Z,19.47
2018-07-22T00:35:52.124Z,19.40
2018-07-22T00:36:52.128Z,19.40
2018-07-22T00:37:52.131Z,19.36
2018-07-22T00:38:52.134Z,19.36
2018-07-22T00:39:52.136Z,19.39
2018-07-22T00:40:52.143Z,19.36
2018-07-22T00:41:52.144Z,19.29
2018-07-22T00:42:52.147Z,19.27
2018-07-22T00:43:52.149Z,19.31
2018-07-22T00:44:52.153Z,19.29
2018-07-22T00:45:52.157Z,19.27
2018-07-22T00:46:52.159Z,19.30
2018-07-22T00:47:52.160Z,19.21
2018-07-22T00:48:52.165Z,19.21
2018-07-22T00:49:52.169Z,19.22
2018-07-22T00:50:52.170Z,19.21
2018-07-22T00:51:52.175Z,19.16
2018-07-22T00:52:52.177Z,19.24
2018-07-22T00:53:52.179Z,19.14
2018-07-22T00:54:52.182Z,19.19
2018-07-22T00:55:52.186Z,19.16
2018-07-22T00:56:52.189Z,19.15
2018-07-22T00:57:52.192Z,19.16
2018-07-22T00:58:52.195Z,19.14
2018-07-22T00:59:52.203Z,19.14
2018-07-22T01:00:52.201Z,19.14
2018-07-22T01:01:52.204Z,19.14
2018-07-22T01:02:52.210Z,19.16
2018-07-22T01:03:52.212Z,19.16
2018-07-22T01:04:52.213Z,19.12
2018-07-22T01:05:52.216Z,19.11
2018-07-22T01:06:52.219Z,19.07
2018-07-22T01:07:52.222Z,18.96
2018-07-22T01:08:52.224Z,19.11
2018-07-22T01:09:52.227Z,19.08
2018-07-22T01:10:52.229Z,19.08
2018-07-22T01:11:52.234Z,19.07
2018-07-22T01:12:52.240Z,19.07
2018-07-22T01:13:52.240Z,19.04
2018-07-22T01:14:52.240Z,19.02
2018-07-22T01:15:52.245Z,19.04
2018-07-22T01:16:52.248Z,19.02
2018-07-22T01:17:52.250Z,18.92
2018-07-22T01:18:52.252Z,18.98
2018-07-22T01:19:52.255Z,18.92
2018-07-22T01:20:52.258Z,18.84
2018-07-22T01:21:52.260Z,18.86
2018-07-22T01:22:52.263Z,18.81
2018-07-22T01:23:52.266Z,18.80
2018-07-22T01:24:52.268Z,18.78
2018-07-22T01:25:52.275Z,18.77
2018-07-22T01:26:52.274Z,18.81
2018-07-22T01:27:52.278Z,18.83
2018-07-22T01:28:52.279Z,18.81
2018-07-22T01:29:52.283Z,18.84
2018-07-22T01:30:52.284Z,18.78
2018-07-22T01:31:52.289Z,18.73
2018-07-22T01:32:52.292Z,18.84
2018-07-22T01:33:52.292Z,18.73
2018-07-22T01:34:52.296Z,18.74
2018-07-22T01:35:52.298Z,18.71
2018-07-22T01:36:52.300Z,18.66
2018-07-22T01:37:52.303Z,18.70
2018-07-22T01:38:52.307Z,18.62
2018-07-22T01:39:52.308Z,18.70
2018-07-22T01:40:52.312Z,18.73
2018-07-22T01:41:52.317Z,18.68
2018-07-22T01:42:52.316Z,18.66
2018-07-22T01:43:52.318Z,18.56
2018-07-22T01:44:52.321Z,18.50
2018-07-22T01:45:52.325Z,18.58
2018-07-22T01:46:52.325Z,18.55
2018-07-22T01:47:52.328Z,18.55
2018-07-22T01:48:52.331Z,18.49
2018-07-22T01:49:52.335Z,18.49
2018-07-22T01:50:52.338Z,18.49
2018-07-22T01:51:52.338Z,18.43
2018-07-22T01:52:52.341Z,18.49
2018-07-22T01:53:52.344Z,18.49
2018-07-22T01:54:52.344Z,18.49
2018-07-22T01:55:52.348Z,18.35
2018-07-22T01:56:52.351Z,18.41
2018-07-22T01:57:52.354Z,18.37
2018-07-22T01:58:52.355Z,18.37
2018-07-22T01:59:52.357Z,18.26
2018-07-22T02:00:52.360Z,18.29
2018-07-22T02:01:52.362Z,18.28
2018-07-22T02:02:52.364Z,18.22
2018-07-22T02:03:52.368Z,18.23
2018-07-22T02:04:52.370Z,18.23
2018-07-22T02:05:52.372Z,18.26
2018-07-22T02:06:52.374Z,18.19
2018-07-22T02:07:52.376Z,18.26
2018-07-22T02:08:52.379Z,18.23
2018-07-22T02:09:52.380Z,18.23
2018-07-22T02:10:52.383Z,18.19
2018-07-22T02:11:52.384Z,18.26
2018-07-22T02:12:52.387Z,18.23
2018-07-22T02:13:52.390Z,18.22
2018-07-22T02:14:52.392Z,18.19
2018-07-22T02:15:52.395Z,18.19
2018-07-22T02:16:52.394Z,18.23
2018-07-22T02:17:52.398Z,18.19
2018-07-22T02:18:52.400Z,18.22
2018-07-22T02:19:52.401Z,18.19
2018-07-22T02:20:52.447Z,18.19
2018-07-22T02:21:52.406Z,18.28
2018-07-22T02:22:52.407Z,18.15
2018-07-22T02:23:52.409Z,18.22
2018-07-22T02:24:52.413Z,18.08
2018-07-22T02:25:52.415Z,18.25
2018-07-22T02:26:52.415Z,18.19
2018-07-22T02:27:52.418Z,18.20
2018-07-22T02:28:52.421Z,18.20
2018-07-22T02:29:52.422Z,18.15
2018-07-22T02:30:52.425Z,18.05
2018-07-22T02:31:52.427Z,18.01
2018-07-22T02:32:52.428Z,18.03
2018-07-22T02:33:52.431Z,18.01
2018-07-22T02:34:52.437Z,18.08
2018-07-22T02:35:52.436Z,18.03
2018-07-22T02:36:52.438Z,17.94
2018-07-22T02:37:52.440Z,18.08
2018-07-22T02:38:52.441Z,17.95
2018-07-22T02:39:52.445Z,18.01
2018-07-22T02:40:52.448Z,17.94
2018-07-22T02:41:52.449Z,17.89
2018-07-22T02:42:52.447Z,17.94
2018-07-22T02:43:52.452Z,17.90
2018-07-22T02:44:52.452Z,17.85
2018-07-22T02:45:52.456Z,17.89
2018-07-22T02:46:52.456Z,17.85
2018-07-22T02:47:52.458Z,17.85
2018-07-22T02:48:52.461Z,17.85
2018-07-22T02:49:52.464Z,17.85
2018-07-22T02:50:52.464Z,17.83
2018-07-22T02:51:52.468Z,17.89
2018-07-22T02:52:52.473Z,17.85
2018-07-22T02:53:52.475Z,17.89
2018-07-22T02:54:52.472Z,17.82
2018-07-22T02:55:52.474Z,17.82
2018-07-22T02:56:52.476Z,17.82
2018-07-22T02:57:52.478Z,17.82
2018-07-22T02:58:52.481Z,17.80
2018-07-22T02:59:52.483Z,17.74
2018-07-22T03:00:52.484Z,17.80
2018-07-22T03:01:52.490Z,17.80
2018-07-22T03:02:52.487Z,17.78
2018-07-22T03:03:52.489Z,17.70
2018-07-22T03:04:52.491Z,17.71
2018-07-22T03:05:52.493Z,17.74
2018-07-22T03:06:52.495Z,17.71
2018-07-22T03:07:52.496Z,17.74
2018-07-22T03:08:52.499Z,17.68
2018-07-22T03:09:52.502Z,17.71
2018-07-22T03:10:52.501Z,17.70
2018-07-22T03:11:52.503Z,17.67
2018-07-22T03:12:52.505Z,17.71
2018-07-22T03:13:52.507Z,17.63
2018-07-22T03:14:52.509Z,17.67
2018-07-22T03:15:52.512Z,17.60
2018-07-22T03:16:52.519Z,17.63
2018-07-22T03:17:52.514Z,17.65
2018-07-22T03:18:52.516Z,17.60
2018-07-22T03:19:52.517Z,17.56
2018-07-22T03:20:52.519Z,17.52
2018-07-22T03:21:52.522Z,17.60
2018-07-22T03:22:52.520Z,17.54
2018-07-22T03:23:52.523Z,17.56
2018-07-22T03:24:52.525Z,17.54
2018-07-22T03:25:52.527Z,17.56
2018-07-22T03:26:52.528Z,17.54
2018-07-22T03:27:52.531Z,17.49
2018-07-22T03:28:52.531Z,17.42
2018-07-22T03:29:52.535Z,17.44
2018-07-22T03:30:52.536Z,17.46
2018-07-22T03:31:52.541Z,17.41
2018-07-22T03:32:52.538Z,17.49
2018-07-22T03:33:52.541Z,17.44
2018-07-22T03:34:52.546Z,17.44
2018-07-22T03:35:52.543Z,17.52
2018-07-22T03:36:52.544Z,17.41
2018-07-22T03:37:52.548Z,17.48
2018-07-22T03:38:52.548Z,17.46
2018-07-22T03:39:52.550Z,17.49
2018-07-22T03:40:52.552Z,17.44
2018-07-22T03:41:52.554Z,17.31
2018-07-22T03:42:52.555Z,17.38
2018-07-22T03:43:52.557Z,17.31
2018-07-22T03:44:52.560Z,17.39
2018-07-22T03:45:52.563Z,17.31
2018-07-22T03:46:52.562Z,17.27
2018-07-22T03:47:52.564Z,17.38
2018-07-22T03:48:52.569Z,17.29
2018-07-22T03:49:52.568Z,17.30
2018-07-22T03:50:52.570Z,17.30
2018-07-22T03:51:52.571Z,17.31
2018-07-22T03:52:52.573Z,17.34
2018-07-22T03:53:52.575Z,17.30
2018-07-22T03:54:52.576Z,17.24
2018-07-22T03:55:52.579Z,17.29
2018-07-22T03:56:52.581Z,17.30
2018-07-22T03:57:52.581Z,17.27
2018-07-22T03:58:52.582Z,17.23
2018-07-22T03:59:52.587Z,17.27
2018-07-22T04:00:52.588Z,17.30
2018-07-22T04:01:52.593Z,17.29
2018-07-22T04:02:52.591Z,17.33
2018-07-22T04:03:52.592Z,17.23
2018-07-22T04:04:52.594Z,17.26
2018-07-22T04:05:52.596Z,17.22
2018-07-22T04:06:52.602Z,17.16
2018-07-22T04:07:52.603Z,17.16
2018-07-22T04:08:52.602Z,17.19
2018-07-22T04:09:52.606Z,17.16
2018-07-22T04:10:52.605Z,17.16
2018-07-22T04:11:52.611Z,17.16
2018-07-22T04:12:52.609Z,17.23
2018-07-22T04:13:52.612Z,17.19
2018-07-22T04:14:52.613Z,17.15
2018-07-22T04:15:52.614Z,17.19
2018-07-22T04:16:52.617Z,17.15
2018-07-22T04:17:52.620Z,17.14
2018-07-22T04:18:52.620Z,17.19
2018-07-22T04:19:52.623Z,17.16
2018-07-22T04:20:52.624Z,17.19
2018-07-22T04:21:52.627Z,17.22
2018-07-22T04:22:52.629Z,17.20
2018-07-22T04:23:52.632Z,17.16
2018-07-22T04:24:52.636Z,17.16
2018-07-22T04:25:52.635Z,17.22
2018-07-22T04:26:52.636Z,17.20
2018-07-22T04:27:52.638Z,17.26
2018-07-22T04:28:52.641Z,17.22
2018-07-22T04:29:52.642Z,17.38
2018-07-22T04:30:52.644Z,17.27
2018-07-22T04:31:52.647Z,17.27
2018-07-22T04:32:52.650Z,17.34
2018-07-22T04:33:52.652Z,17.38
2018-07-22T04:34:52.652Z,17.29
2018-07-22T04:35:52.655Z,17.36
2018-07-22T04:36:52.657Z,17.29
2018-07-22T04:37:52.661Z,17.30
2018-07-22T04:38:52.660Z,17.30
2018-07-22T04:39:52.662Z,17.30
2018-07-22T04:40:52.745Z,17.30
2018-07-22T04:41:52.667Z,17.39
2018-07-22T04:42:52.669Z,17.46
2018-07-22T04:43:52.672Z,17.38
2018-07-22T04:44:52.673Z,17.46
2018-07-22T04:45:52.677Z,17.46
2018-07-22T04:46:52.677Z,17.44
2018-07-22T04:47:52.679Z,17.56
2018-07-22T04:48:52.695Z,17.60
2018-07-22T04:49:52.685Z,17.48
2018-07-22T04:50:52.688Z,17.46
2018-07-22T04:51:52.688Z,17.41
2018-07-22T04:52:52.692Z,17.49
2018-07-22T04:53:52.693Z,17.44
2018-07-22T04:54:52.695Z,17.51
2018-07-22T04:55:52.697Z,17.57
2018-07-22T04:56:52.700Z,17.63
2018-07-22T04:57:52.701Z,17.63
2018-07-22T04:58:52.703Z,17.67
2018-07-22T04:59:52.707Z,17.78
2018-07-22T05:00:52.710Z,17.79
2018-07-22T05:01:52.712Z,17.80
2018-07-22T05:02:52.713Z,17.76
2018-07-22T05:03:52.717Z,17.79
2018-07-22T05:04:52.719Z,17.82
2018-07-22T05:05:52.721Z,17.74
2018-07-22T05:06:52.726Z,17.76
2018-07-22T05:07:52.725Z,17.74
2018-07-22T05:08:52.728Z,17.76
2018-07-22T05:09:52.731Z,17.70
2018-07-22T05:10:52.731Z,17.72
2018-07-22T05:11:52.735Z,17.80
2018-07-22T05:12:52.737Z,17.71
2018-07-22T05:13:52.741Z,17.83
2018-07-22T05:14:52.741Z,17.85
2018-07-22T05:15:52.746Z,17.80
2018-07-22T05:16:52.748Z,17.82
2018-07-22T05:17:52.749Z,17.78
2018-07-22T05:18:52.753Z,17.82
2018-07-22T05:19:52.754Z,17.78
2018-07-22T05:20:52.758Z,17.87
2018-07-22T05:21:52.759Z,17.97
2018-07-22T05:22:52.762Z,18.23
2018-07-22T05:23:52.765Z,18.44
2018-07-22T05:24:52.768Z,18.53
2018-07-22T05:25:52.770Z,18.50
2018-07-22T05:26:52.773Z,18.40
2018-07-22T05:27:52.774Z,18.34
2018-07-22T05:28:52.777Z,18.45
2018-07-22T05:29:52.783Z,18.43
2018-07-22T05:30:52.782Z,18.52
2018-07-22T05:31:52.785Z,18.58
2018-07-22T05:32:52.788Z,18.52
2018-07-22T05:33:52.790Z,18.45
2018-07-22T05:34:52.793Z,18.43
2018-07-22T05:35:52.796Z,18.58
2018-07-22T05:36:52.799Z,18.58
2018-07-22T05:37:52.801Z,18.52
2018-07-22T05:38:52.804Z,18.59
2018-07-22T05:39:52.839Z,18.53
2018-07-22T05:40:52.808Z,18.80
2018-07-22T05:41:52.815Z,18.81
2018-07-22T05:42:52.814Z,18.78
2018-07-22T05:43:52.817Z,18.73
2018-07-22T05:44:52.820Z,18.70
2018-07-22T05:45:52.823Z,18.66
2018-07-22T05:46:52.827Z,18.74
2018-07-22T05:47:52.832Z,18.73
2018-07-22T05:48:52.831Z,18.74
2018-07-22T05:49:52.834Z,18.80
2018-07-22T05:50:52.838Z,18.73
2018-07-22T05:51:52.841Z,18.70
2018-07-22T05:52:52.844Z,18.56
2018-07-22T05:53:52.852Z,18.65
2018-07-22T05:54:52.849Z,18.56
2018-07-22T05:55:52.852Z,18.58
2018-07-22T05:56:52.855Z,18.71
2018-07-22T05:57:52.863Z,18.75
2018-07-22T05:58:52.861Z,18.81
2018-07-22T05:59:52.865Z,18.89
2018-07-22T06:00:52.867Z,18.93
2018-07-22T06:01:52.870Z,19.07
2018-07-22T06:02:52.873Z,19.02
2018-07-22T06:03:52.875Z,18.96
2018-07-22T06:04:52.881Z,19.00
2018-07-22T06:05:52.883Z,18.98
2018-07-22T06:06:52.884Z,19.02
2018-07-22T06:07:52.892Z,18.99
2018-07-22T06:08:52.889Z,19.11
2018-07-22T06:09:52.895Z,19.11
2018-07-22T06:10:52.896Z,19.12
2018-07-22T06:11:52.924Z,19.07
2018-07-22T06:12:52.905Z,18.93
2018-07-22T06:13:52.906Z,18.88
2018-07-22T06:14:52.909Z,18.88
2018-07-22T06:15:52.913Z,19.04
2018-07-22T06:16:52.916Z,19.04
2018-07-22T06:17:52.919Z,19.04
2018-07-22T06:18:52.951Z,19.16
2018-07-22T06:19:52.926Z,19.14
2018-07-22T06:20:52.928Z,19.18
2018-07-22T06:21:52.931Z,19.24
2018-07-22T06:22:52.932Z,19.26
2018-07-22T06:23:52.938Z,19.31
2018-07-22T06:24:52.942Z,19.49
2018-07-22T06:25:52.945Z,19.44
2018-07-22T06:26:52.947Z,19.52
2018-07-22T06:27:52.949Z,19.52
2018-07-22T06:28:52.953Z,19.58
2018-07-22T06:29:52.957Z,19.66
2018-07-22T06:30:52.960Z,19.56
2018-07-22T06:31:52.961Z,19.49
2018-07-22T06:32:52.966Z,19.70
2018-07-22T06:33:52.970Z,19.67
2018-07-22T06:34:52.972Z,19.69
2018-07-22T06:35:52.976Z,19.82
2018-07-22T06:36:52.980Z,19.71
2018-07-22T06:37:52.984Z,19.74
2018-07-22T06:38:52.987Z,19.71
2018-07-22T06:39:52.989Z,19.84
2018-07-22T06:40:52.993Z,19.88
2018-07-22T06:41:52.997Z,19.95
2018-07-22T06:42:53.000Z,20.10
2018-07-22T06:43:53.007Z,19.94
2018-07-22T06:44:53.007Z,20.04
2018-07-22T06:45:53.011Z,20.11
2018-07-22T06:46:53.014Z,20.10
2018-07-22T06:47:53.020Z,20.24
2018-07-22T06:48:53.022Z,20.41
2018-07-22T06:49:53.028Z,20.44
2018-07-22T06:50:53.026Z,20.44
2018-07-22T06:51:53.032Z,20.39
2018-07-22T06:52:53.033Z,20.44
2018-07-22T06:53:53.040Z,20.59
2018-07-22T06:54:53.043Z,20.51
2018-07-22T06:55:53.046Z,20.40
2018-07-22T06:56:53.050Z,20.56
2018-07-22T06:57:53.056Z,20.62
2018-07-22T06:58:53.057Z,20.55
2018-07-22T06:59:53.062Z,20.55
2018-07-22T07:00:53.089Z,20.70
2018-07-22T07:01:53.070Z,20.70
2018-07-22T07:02:53.073Z,20.80
2018-07-22T07:03:53.076Z,20.80
2018-07-22T07:04:53.085Z,20.72
2018-07-22T07:05:53.086Z,20.63
2018-07-22T07:06:53.089Z,20.59
2018-07-22T07:07:53.092Z,20.74
2018-07-22T07:08:53.095Z,20.88
2018-07-22T07:09:53.101Z,20.84
2018-07-22T07:10:53.138Z,20.74
2018-07-22T07:11:53.109Z,20.85
2018-07-22T07:12:53.112Z,20.90
2018-07-22T07:13:53.118Z,21.03
2018-07-22T07:14:53.120Z,21.12
2018-07-22T07:15:53.124Z,21.21
2018-07-22T07:16:53.128Z,21.02
2018-07-22T07:17:53.133Z,20.95
2018-07-22T07:18:53.136Z,21.02
2018-07-22T07:19:53.142Z,20.92
2018-07-22T07:20:53.199Z,21.05
2018-07-22T07:21:53.150Z,21.20
2018-07-22T07:22:53.154Z,21.25
2018-07-22T07:23:53.158Z,21.37
2018-07-22T07:24:53.163Z,21.52
2018-07-22T07:25:53.168Z,21.52
2018-07-22T07:26:53.175Z,21.45
2018-07-22T07:27:53.175Z,21.54
2018-07-22T07:28:53.181Z,21.57
2018-07-22T07:29:53.185Z,21.46
2018-07-22T07:30:53.190Z,21.50
2018-07-22T07:31:53.195Z,21.62
2018-07-22T07:32:53.200Z,21.64
2018-07-22T07:33:53.203Z,21.76
2018-07-22T07:34:53.213Z,21.85
2018-07-22T07:35:53.213Z,21.80
2018-07-22T07:36:53.217Z,21.76
2018-07-22T07:37:53.223Z,21.79
2018-07-22T07:38:53.227Z,21.92
2018-07-22T07:39:53.231Z,21.95
2018-07-22T07:40:53.239Z,21.99
2018-07-22T07:41:53.246Z,22.04
2018-07-22T07:42:53.245Z,22.04
2018-07-22T07:43:53.252Z,22.04
2018-07-22T07:44:53.256Z,22.13
2018-07-22T07:45:53.262Z,22.29
2018-07-22T07:46:53.265Z,22.43
2018-07-22T07:47:53.270Z,22.69
2018-07-22T07:48:53.276Z,23.08
2018-07-22T07:49:53.284Z,23.51
2018-07-22T07:50:53.287Z,24.05
2018-07-22T07:51:53.294Z,24.65
2018-07-22T07:52:53.302Z,25.38
2018-07-22T07:53:53.312Z,25.91
2018-07-22T07:54:53.317Z,26.23
2018-07-22T07:55:53.327Z,26.51
2018-07-22T07:56:53.334Z,26.09
2018-07-22T07:57:53.341Z,25.95
2018-07-22T07:58:53.350Z,26.53
2018-07-22T07:59:53.361Z,27.05
2018-07-22T08:00:53.375Z,26.71
2018-07-22T08:01:53.383Z,27.29
2018-07-22T08:02:53.391Z,27.77
2018-07-22T08:03:53.426Z,27.20
2018-07-22T08:04:53.413Z,27.39
2018-07-22T08:05:53.424Z,27.52
2018-07-22T08:06:53.437Z,27.22
2018-07-22T08:07:53.447Z,26.81
2018-07-22T08:08:53.464Z,26.99
2018-07-22T08:09:53.476Z,26.97
2018-07-22T08:10:53.484Z,26.70
2018-07-22T08:11:53.497Z,27.20
2018-07-22T08:12:53.511Z,27.33
2018-07-22T08:13:53.524Z,27.98
2018-07-22T08:14:53.537Z,28.54
2018-07-22T08:15:53.550Z,28.76
2018-07-22T08:16:53.564Z,29.07
2018-07-22T08:17:53.578Z,28.08
2018-07-22T08:18:56.438Z,28.19
2018-07-22T08:19:53.605Z,28.19
2018-07-22T08:20:53.618Z,28.05
2018-07-22T08:21:53.665Z,27.86
2018-07-22T08:22:53.648Z,28.11
2018-07-22T08:23:53.661Z,27.92
2018-07-22T08:24:53.675Z,27.21
2018-07-22T08:25:53.688Z,27.25
2018-07-22T08:26:53.701Z,27.71
2018-07-22T08:27:53.716Z,27.39
2018-07-22T08:28:53.734Z,27.37
2018-07-22T08:29:53.744Z,27.75
2018-07-22T08:30:53.758Z,27.59
2018-07-22T08:31:53.785Z,27.80
2018-07-22T08:32:53.791Z,27.89
2018-07-22T08:33:53.801Z,27.70
2018-07-22T08:34:53.817Z,27.80
2018-07-22T08:35:53.830Z,28.25
2018-07-22T08:36:53.845Z,28.48
2018-07-22T08:37:53.861Z,28.64
2018-07-22T08:38:53.873Z,28.88
2018-07-22T08:39:53.886Z,27.47
2018-07-22T08:40:53.900Z,27.73
2018-07-22T08:41:53.916Z,28.20
2018-07-22T08:42:53.929Z,28.69
2018-07-22T08:43:53.944Z,29.24
2018-07-22T08:44:53.959Z,29.60
2018-07-22T08:45:53.973Z,29.69
2018-07-22T08:46:53.990Z,29.93
2018-07-22T08:47:54.001Z,30.10
2018-07-22T08:48:54.018Z,29.84
2018-07-22T08:49:54.033Z,29.57
2018-07-22T08:50:54.047Z,28.70
2018-07-22T08:51:54.067Z,28.35
2018-07-22T08:52:54.076Z,28.33
2018-07-22T08:53:54.091Z,28.82
2018-07-22T08:54:54.104Z,29.17
2018-07-22T08:55:54.120Z,28.94
2018-07-22T08:56:54.135Z,29.10
2018-07-22T08:57:54.152Z,29.68
2018-07-22T08:58:54.166Z,30.31
2018-07-22T08:59:54.177Z,29.47
2018-07-22T09:00:54.192Z,29.86
2018-07-22T09:01:54.208Z,30.23
2018-07-22T09:02:54.222Z,30.40
2018-07-22T09:03:54.237Z,30.61
2018-07-22T09:04:54.254Z,30.97
2018-07-22T09:05:54.267Z,31.09
2018-07-22T09:06:54.281Z,31.17
2018-07-22T09:07:54.298Z,30.81
2018-07-22T09:08:54.312Z,30.87
2018-07-22T09:09:54.327Z,30.66
2018-07-22T09:10:54.342Z,30.88
2018-07-22T09:11:54.358Z,30.80
2018-07-22T09:12:54.372Z,30.65
2018-07-22T09:13:54.387Z,30.16
2018-07-22T09:14:54.401Z,29.98
2018-07-22T09:15:54.418Z,30.34
2018-07-22T09:16:54.431Z,30.70
2018-07-22T09:17:54.555Z,30.10
2018-07-22T09:18:54.462Z,29.95
2018-07-22T09:19:54.480Z,30.31
2018-07-22T09:20:54.492Z,30.21
2018-07-22T09:21:54.508Z,30.65
2018-07-22T09:22:54.522Z,30.77
2018-07-22T09:23:54.537Z,30.06
2018-07-22T09:24:54.552Z,29.54
2018-07-22T09:25:54.567Z,29.39
2018-07-22T09:26:54.594Z,29.17
2018-07-22T09:27:54.597Z,29.68
2018-07-22T09:28:54.612Z,30.27
2018-07-22T09:29:54.628Z,30.06
2018-07-22T09:30:54.643Z,29.34
2018-07-22T09:31:54.659Z,28.82
2018-07-22T09:32:54.672Z,29.42
2018-07-22T09:33:54.690Z,29.66
2018-07-22T09:34:54.702Z,30.05
2018-07-22T09:35:54.782Z,30.48
2018-07-22T09:36:54.733Z,30.27
2018-07-22T09:37:54.747Z,30.43
2018-07-22T09:38:54.762Z,30.59
2018-07-22T09:39:54.777Z,29.91
2018-07-22T09:40:54.791Z,29.72
2018-07-22T09:41:54.845Z,30.16
2018-07-22T09:42:54.821Z,29.88
2018-07-22T09:43:54.836Z,29.56
2018-07-22T09:44:54.851Z,28.98
2018-07-22T09:45:54.865Z,28.42
2018-07-22T09:46:54.879Z,28.41
2018-07-22T09:47:54.894Z,28.93
2018-07-22T09:48:54.910Z,28.60
2018-07-22T09:49:54.923Z,28.56
2018-07-22T09:50:54.937Z,28.69
2018-07-22T09:51:54.956Z,29.08
2018-07-22T09:52:54.967Z,29.75
2018-07-22T09:53:54.980Z,30.02
2018-07-22T09:54:54.993Z,30.66
2018-07-22T09:55:55.007Z,31.12
2018-07-22T09:56:55.023Z,31.20
2018-07-22T09:57:55.036Z,31.15
2018-07-22T09:58:55.049Z,31.21
2018-07-22T09:59:55.063Z,31.77
2018-07-22T10:00:55.079Z,31.21
2018-07-22T10:01:55.093Z,30.53
2018-07-22T10:02:55.106Z,30.34
2018-07-22T10:03:55.120Z,30.27
2018-07-22T10:04:55.148Z,29.17
2018-07-22T10:05:55.148Z,29.39
2018-07-22T10:06:55.162Z,29.04
2018-07-22T10:07:55.175Z,28.89
2018-07-22T10:08:55.189Z,29.14
2018-07-22T10:09:55.204Z,29.20
2018-07-22T10:10:55.217Z,28.94
2018-07-22T10:11:55.234Z,29.05
2018-07-22T10:12:55.245Z,29.61
2018-07-22T10:13:55.264Z,30.47
2018-07-22T10:14:55.272Z,30.78
2018-07-22T10:15:55.287Z,31.29
2018-07-22T10:16:55.304Z,31.44
2018-07-22T10:17:55.315Z,31.27
2018-07-22T10:18:55.327Z,30.87
2018-07-22T10:19:55.341Z,31.00
2018-07-22T10:20:55.356Z,30.91
2018-07-22T10:21:55.370Z,30.83
2018-07-22T10:22:55.383Z,30.83
2018-07-22T10:23:55.396Z,30.73
2018-07-22T10:24:55.415Z,30.92
2018-07-22T10:25:55.428Z,30.92
2018-07-22T10:26:55.438Z,30.69
2018-07-22T10:27:55.453Z,30.24
2018-07-22T10:28:55.467Z,30.47
2018-07-22T10:29:55.483Z,30.70
2018-07-22T10:30:55.496Z,30.99
2018-07-22T10:31:55.508Z,31.33
2018-07-22T10:32:55.522Z,31.40
2018-07-22T10:33:55.536Z,31.09
2018-07-22T10:34:55.550Z,31.29
2018-07-22T10:35:55.630Z,31.52
2018-07-22T10:36:55.579Z,30.85
2018-07-22T10:37:55.593Z,30.57
2018-07-22T10:38:55.606Z,30.88
2018-07-22T10:39:55.622Z,30.72
2018-07-22T10:40:55.637Z,30.80
2018-07-22T10:41:55.650Z,30.39
2018-07-22T10:42:55.663Z,30.62
2018-07-22T10:43:55.680Z,31.05
2018-07-22T10:44:55.694Z,31.06
2018-07-22T10:45:55.706Z,30.53
2018-07-22T10:46:55.721Z,30.18
2018-07-22T10:47:55.734Z,29.94
2018-07-22T10:48:55.749Z,30.24
2018-07-22T10:49:55.763Z,30.25
2018-07-22T10:50:55.806Z,30.66
2018-07-22T10:51:55.791Z,30.88
2018-07-22T10:52:55.807Z,31.17
2018-07-22T10:53:55.821Z,31.37
2018-07-22T10:54:55.836Z,31.31
2018-07-22T10:55:55.848Z,31.43
2018-07-22T10:56:55.861Z,30.21
2018-07-22T10:57:55.876Z,29.66
2018-07-22T10:58:55.889Z,29.07
2018-07-22T10:59:55.903Z,29.69
2018-07-22T11:00:55.919Z,30.00
2018-07-22T11:01:55.931Z,30.16
2018-07-22T11:02:55.945Z,30.43
2018-07-22T11:03:55.960Z,30.63
2018-07-22T11:04:55.975Z,30.88
2018-07-22T11:05:55.987Z,30.73
2018-07-22T11:06:56.002Z,30.34
2018-07-22T11:07:56.015Z,30.25
2018-07-22T11:08:56.034Z,30.35
2018-07-22T11:09:56.044Z,30.54
2018-07-22T11:10:56.057Z,30.16
2018-07-22T11:11:56.072Z,30.08
2018-07-22T11:12:56.085Z,30.55
2018-07-22T11:13:56.098Z,30.18
2018-07-22T11:14:56.120Z,29.42
2018-07-22T11:15:56.125Z,29.36
2018-07-22T11:16:56.140Z,29.78
2018-07-22T11:17:56.152Z,30.53
2018-07-22T11:18:56.165Z,30.99
2018-07-22T11:19:56.178Z,31.33
2018-07-22T11:20:56.231Z,31.12
2018-07-22T11:21:56.210Z,29.91
2018-07-22T11:22:56.219Z,29.41
2018-07-22T11:23:56.232Z,30.03
2018-07-22T11:24:56.246Z,29.73
2018-07-22T11:25:56.260Z,29.93
2018-07-22T11:26:56.273Z,29.53
2018-07-22T11:27:56.287Z,29.31
2018-07-22T11:28:56.316Z,29.32
2018-07-22T11:29:56.313Z,29.19
2018-07-22T11:30:56.324Z,28.49
2018-07-22T11:31:56.338Z,28.33
2018-07-22T11:32:56.351Z,28.51
2018-07-22T11:33:56.365Z,28.19
2018-07-22T11:34:56.377Z,28.08
2018-07-22T11:35:56.422Z,28.20
2018-07-22T11:36:56.401Z,28.42
2018-07-22T11:37:56.413Z,28.57
2018-07-22T11:38:56.425Z,28.62
2018-07-22T11:39:56.437Z,28.60
2018-07-22T11:40:56.452Z,28.72
2018-07-22T11:41:56.463Z,28.72
2018-07-22T11:42:56.477Z,28.85
2018-07-22T11:43:56.500Z,28.84
2018-07-22T11:44:56.499Z,28.67
2018-07-22T11:45:56.512Z,28.54
2018-07-22T11:46:56.521Z,28.60
2018-07-22T11:47:56.537Z,28.79
2018-07-22T11:48:56.546Z,28.54
2018-07-22T11:49:56.558Z,28.64
2018-07-22T11:50:56.567Z,28.54
2018-07-22T11:51:56.581Z,28.48
2018-07-22T11:52:56.595Z,28.37
2018-07-22T11:53:56.605Z,28.33
2018-07-22T11:54:56.615Z,28.38
2018-07-22T11:55:56.628Z,28.14
2018-07-22T11:56:56.638Z,28.30
2018-07-22T11:57:56.651Z,28.63
2018-07-22T11:58:56.662Z,29.07
2018-07-22T11:59:56.671Z,29.38
2018-07-22T12:00:56.720Z,29.81
2018-07-22T12:01:56.694Z,29.29
2018-07-22T12:02:56.705Z,28.89
2018-07-22T12:03:56.716Z,28.57
2018-07-22T12:04:56.728Z,28.63
2018-07-22T12:05:56.748Z,28.84
2018-07-22T12:06:56.751Z,29.12
2018-07-22T12:07:56.761Z,29.22
2018-07-22T12:08:56.772Z,29.13
2018-07-22T12:09:56.788Z,28.78
2018-07-22T12:10:56.794Z,28.72
2018-07-22T12:11:56.805Z,28.62
2018-07-22T12:12:56.818Z,28.91
2018-07-22T12:13:56.829Z,29.05
2018-07-22T12:14:56.839Z,28.74
2018-07-22T12:15:56.850Z,28.75
2018-07-22T12:16:56.860Z,28.76
2018-07-22T12:17:56.872Z,28.81
2018-07-22T12:18:56.881Z,29.13
2018-07-22T12:19:56.895Z,29.38
2018-07-22T12:20:56.905Z,29.29
2018-07-22T12:21:56.915Z,28.98
2018-07-22T12:22:56.927Z,29.10
2018-07-22T12:23:56.936Z,29.19
2018-07-22T12:24:56.947Z,29.16
2018-07-22T12:25:56.958Z,29.07
2018-07-22T12:26:56.971Z,28.69
2018-07-22T12:27:56.978Z,28.49
2018-07-22T12:28:56.991Z,28.54
2018-07-22T12:29:57.011Z,28.30
2018-07-22T12:30:57.012Z,28.17
2018-07-22T12:31:57.023Z,28.29
2018-07-22T12:32:57.034Z,28.38
2018-07-22T12:33:57.047Z,28.41
2018-07-22T12:34:57.055Z,28.27
2018-07-22T12:35:57.066Z,28.57
2018-07-22T12:36:57.077Z,28.59
2018-07-22T12:37:57.091Z,28.51
2018-07-22T12:38:57.099Z,28.85
2018-07-22T12:39:57.108Z,28.97
2018-07-22T12:40:57.119Z,29.34
2018-07-22T12:41:57.132Z,29.26
2018-07-22T12:42:57.144Z,29.35
2018-07-22T12:43:57.151Z,29.07
2018-07-22T12:44:57.162Z,28.93
2018-07-22T12:45:57.173Z,28.94
2018-07-22T12:46:57.182Z,29.14
2018-07-22T12:47:57.195Z,29.07
2018-07-22T12:48:57.204Z,28.88
2018-07-22T12:49:57.215Z,29.12
2018-07-22T12:50:57.224Z,29.32
2018-07-22T12:51:57.236Z,29.27
2018-07-22T12:52:57.247Z,29.24